Main page
METAR-TAF:

METAR-TAF

Airports :

Ruben Berta International Airport

Uruguaiana, Rio Grande do Sul, Brazil

latitude: 29-47S, longitude: 057-02W, elevation: 74 m

Current weather observation

The report was made 33 minutes ago, at 16:00 UTC
Wind 6 kt from the East/Northeast, varying between North/Northeast and Southeast
Temperature 34°C
Humidity 50%
Pressure 1010 hPa
Visibility 10 km or more
Few clouds at a height of 4000 ft

METAR: SBUG 201600Z 06006KT 020V130 9999 FEW040 34/22 Q1010

Time: 13:33 (16:33 UTC)

Forecast

The report was made 6 hours and 48 minutes ago, at 09:45 UTC
Forecast valid from 20 at 12 UTC to 20 at 24 UTC
Wind 7 kt from the East/Southeast
Visibility 10 km or more
no clouds below 1500 m and no cumulonimbus

TAF: SBUG 200945Z 2012/2024 11007KT CAVOK TN25/2012Z TX34/2017Z RMK PEB

Weather observations and forecasts of more than 4000 airports (METAR and TAF reports).

The available stations are represented by yellow and red dots on the map.

Hover mouse over dot to see the name of the station.

Then click to see weather observations and forecasts.

To change the map : click on the green buttons with a black cross to zoom in, on the green button with a dash to zoom out, or on the green arrows for adjacent maps.


METAR-TAF: